Lancaster, Canada
Current Conditions -  °F | °C
As of 2:53 PM on Monday 24 Nov 2014 (Local Time) from KMSS Reporting Station
Broken Clouds Broken Clouds  
Wind Chill: 66°   Ceiling: 9000
Heat Index: 66°   Visibility: 10mi
Dew Point: 52°   Wind: 23mph
Humidity: 60%   Direction: 190°S
Pressure: 29.26"   Gusts: 33mph
Location:  45.13°N, 74.5°W
Report Text: KMSS 241953Z AUTO 19020G29KT 10SM FEW060 SCT080 BKN090 19/11 A2926 RMK AO2 PK WND 20037/1913 RAB39E50 SLP909 P0000 T01890111
Loading
Personal Weather Stations






























Interactive Weather Map New forecast layout! Learn more

10-Day Weather Forecast

Advertisements
Track Severe Weather on mobile